Thursday, May 24, 2018, 12:54 PM CDT
Back to Local

KMDW, Chicago Midway Airport

Location: Chicago, IL, United States Lat: 41.783
Local Time: 12:54 PM CDT (17:54 GMT) Lon: -87.75
Time Zone: US/Central Elev: 620 ft

Show me the last for .
Show Decoded

2018-05-24 11:53 METAR KMDW 241653Z 16007KT 10SM FEW250 28/13 A3016 RMK AO2 SLP207 T02780128 =
2018-05-24 10:53 METAR KMDW 241553Z 20007KT 160V250 10SM FEW250 27/13 A3018 RMK AO2 SLP211
                 T02670128 =
2018-05-24 09:53 METAR KMDW 241453Z 19007KT 10SM FEW250 26/13 A3019 RMK AO2 SLP215 T02560128
                 58006 =
2018-05-24 08:53 METAR KMDW 241353Z 19006KT 10SM FEW250 23/13 A3021 RMK AO2 SLP222 T02330133 =
2018-05-24 07:53 METAR KMDW 241253Z 21005KT 10SM FEW250 21/13 A3021 RMK AO2 SLP223 T02110128 =
2018-05-24 06:53 METAR KMDW 241153Z 18004KT 10SM FEW250 18/13 A3020 RMK AO2 SLP222 T01780133
                 10178 20150 53012 =
2018-05-24 05:53 METAR KMDW 241053Z 00000KT 10SM SCT250 16/12 A3019 RMK AO2 SLP218 T01560122 =
2018-05-24 04:53 METAR KMDW 240953Z 00000KT 10SM FEW250 15/12 A3017 RMK AO2 SLP212 T01500117 =
2018-05-24 03:53 METAR KMDW 240853Z 07003KT 10SM CLR 16/12 A3017 RMK AO2 SLP210 T01560117 55003 =
2018-05-24 02:53 METAR KMDW 240753Z 00000KT 10SM CLR 16/12 A3016 RMK AO2 SLP207 T01560117 =
2018-05-24 01:53 METAR KMDW 240653Z 00000KT 10SM CLR 16/11 A3016 RMK AO2 SLP208 T01610111 =
2018-05-24 00:53 METAR KMDW 240553Z 10003KT 10SM FEW250 17/12 A3018 RMK AO2 SLP212 T01670117
                 10222 20161 402560106 58003 =
2018-05-23 23:53 METAR KMDW 240453Z 10005KT 10SM FEW200 16/12 A3019 RMK AO2 SLP218 T01610122 =
2018-05-23 22:53 METAR KMDW 240353Z 10005KT 10SM FEW250 17/13 A3019 RMK AO2 SLP217 T01670128 =
2018-05-23 21:53 METAR KMDW 240253Z 09006KT 10SM FEW250 17/12 A3019 RMK AO2 SLP216 T01720117
                 53014 =
2018-05-23 20:53 METAR KMDW 240153Z 11006KT 10SM FEW250 18/12 A3017 RMK AO2 SLP212 T01830117 =
2018-05-23 19:53 METAR KMDW 240053Z 10007KT 10SM BKN250 21/10 A3016 RMK AO2 SLP207 T02060100 =
2018-05-23 18:53 METAR KMDW 232353Z 09008KT 10SM FEW200 BKN250 22/10 A3014 RMK AO2 SLP203
                 T02220100 10256 20222 56005 =
2018-05-23 17:53 METAR KMDW 232253Z 09009KT 10SM FEW200 BKN250 24/08 A3015 RMK AO2 SLP204
                 T02390078 =
2018-05-23 16:53 METAR KMDW 232153Z 09008KT 10SM FEW200 BKN250 25/08 A3015 RMK AO2 SLP205
                 T02500078 =
2018-05-23 15:53 METAR KMDW 232053Z 09007KT 10SM FEW200 SCT250 26/11 A3016 RMK AO2 SLP208
                 T02560106 58014 =
2018-05-23 14:53 METAR KMDW 231953Z 06008KT 10SM FEW200 SCT250 26/08 A3018 RMK AO2 SLP215
                 T02560083 =
2018-05-23 13:53 METAR KMDW 231853Z 08006KT 10SM FEW200 SCT250 25/14 A3019 RMK AO2 SLP220
                 T02500139 =

Support USWX by starting your Amazon purchase here.